createdAt,value
2023-05-06T00:02:03.792Z,13.10
2023-05-06T00:12:06.052Z,13.10
2023-05-06T00:22:10.091Z,13.00
2023-05-06T00:32:12.081Z,12.90
2023-05-06T00:42:15.407Z,12.90
2023-05-06T00:52:18.921Z,13.00
2023-05-06T01:02:23.486Z,12.90
2023-05-06T01:12:34.147Z,12.90
2023-05-06T01:22:38.940Z,13.10
2023-05-06T01:32:53.045Z,13.20
2023-05-06T01:42:56.559Z,13.10
2023-05-06T01:53:01.363Z,13.20
2023-05-06T02:03:03.481Z,13.10
2023-05-06T02:13:06.981Z,13.20
2023-05-06T02:23:08.932Z,13.10
2023-05-06T02:33:12.289Z,13.00
2023-05-06T02:43:14.250Z,13.00
2023-05-06T02:53:17.624Z,12.90
2023-05-06T03:03:19.566Z,12.80
2023-05-06T03:13:23.119Z,12.70
2023-05-06T03:23:25.030Z,12.60
2023-05-06T03:33:28.411Z,12.60
2023-05-06T03:43:30.317Z,12.50
2023-05-06T03:53:33.760Z,12.50
2023-05-06T04:03:35.746Z,12.50
2023-05-06T04:13:39.155Z,12.40
2023-05-06T04:23:41.095Z,12.40
2023-05-06T04:33:44.434Z,12.40
2023-05-06T04:43:46.455Z,12.50
2023-05-06T04:53:49.837Z,12.50
2023-05-06T05:03:51.784Z,12.60
2023-05-06T05:13:57.112Z,12.80
2023-05-06T05:23:59.688Z,12.90
2023-05-06T05:34:03.124Z,13.10
2023-05-06T05:44:05.258Z,13.30
2023-05-06T05:54:08.614Z,13.40
2023-05-06T06:04:10.720Z,13.50
2023-05-06T06:14:14.087Z,13.70
2023-05-06T06:24:16.032Z,13.80
2023-05-06T06:34:19.314Z,14.10
2023-05-06T06:44:21.357Z,14.30
2023-05-06T06:54:24.930Z,14.50
2023-05-06T07:04:26.904Z,14.40
2023-05-06T07:14:30.228Z,14.80
2023-05-06T07:24:32.194Z,15.10
2023-05-06T07:34:35.495Z,15.40
2023-05-06T07:44:37.451Z,15.90
2023-05-06T07:54:40.772Z,16.40
2023-05-06T08:04:42.973Z,16.40
2023-05-06T08:14:46.533Z,16.30
2023-05-06T08:24:48.507Z,16.10
2023-05-06T08:34:52.081Z,16.00
2023-05-06T08:44:56.220Z,15.90
2023-05-06T08:55:00.688Z,15.70
2023-05-06T09:05:03.674Z,15.80
2023-05-06T09:15:09.413Z,16.10
2023-05-06T09:25:22.369Z,16.50
2023-05-06T09:35:28.820Z,16.50
2023-05-06T09:45:30.874Z,16.00
2023-05-06T09:55:34.810Z,15.90
2023-05-06T10:05:37.627Z,15.80
2023-05-06T10:15:42.416Z,16.00
2023-05-06T10:25:45.377Z,15.50
2023-05-06T10:35:55.213Z,15.30
2023-05-06T10:46:01.887Z,15.20
2023-05-06T10:56:09.119Z,15.30
2023-05-06T11:06:11.327Z,15.30
2023-05-06T11:16:46.736Z,15.50
2023-05-06T11:26:49.591Z,15.60
2023-05-06T11:37:03.321Z,15.80
2023-05-06T11:47:06.427Z,15.20
2023-05-06T11:57:10.285Z,15.30
2023-05-06T12:07:13.373Z,15.00
2023-05-06T12:17:17.188Z,14.90
2023-05-06T12:27:30.827Z,14.80
2023-05-06T12:37:35.299Z,15.00
2023-05-06T12:47:37.415Z,15.60
2023-05-06T12:57:40.866Z,16.10
2023-05-06T13:07:42.881Z,16.50
2023-05-06T13:17:46.372Z,16.30
2023-05-06T13:27:48.381Z,16.10
2023-05-06T13:37:51.691Z,16.10
2023-05-06T13:47:53.589Z,15.70
2023-05-06T13:57:57.195Z,15.90
2023-05-06T14:07:59.209Z,15.30
2023-05-06T14:18:03.144Z,15.20
2023-05-06T14:28:05.137Z,14.80
2023-05-06T14:38:08.664Z,14.60
2023-05-06T14:48:10.941Z,14.50
2023-05-06T14:58:14.331Z,14.30
2023-05-06T15:08:16.319Z,14.30
2023-05-06T15:18:19.620Z,14.10
2023-05-06T15:28:24.280Z,14.20
2023-05-06T15:38:27.969Z,14.30
2023-05-06T15:48:31.192Z,14.40
2023-05-06T15:58:35.669Z,14.40
2023-05-06T16:08:37.931Z,14.40
2023-05-06T16:18:41.311Z,14.50
2023-05-06T16:28:43.336Z,14.40
2023-05-06T16:38:46.618Z,14.40
2023-05-06T16:48:48.642Z,14.30
2023-05-06T16:58:51.996Z,14.40
2023-05-06T17:08:54.566Z,14.30
2023-05-06T17:18:57.905Z,14.30
2023-05-06T17:29:00.145Z,14.40
2023-05-06T17:39:04.536Z,14.50
2023-05-06T17:49:06.551Z,14.30
2023-05-06T17:59:09.839Z,14.30
2023-05-06T18:09:11.848Z,14.20
2023-05-06T18:19:15.146Z,14.30
2023-05-06T18:29:17.113Z,14.30
2023-05-06T18:39:23.637Z,14.20
2023-05-06T18:49:25.612Z,14.20
2023-05-06T18:59:28.947Z,14.20
2023-05-06T19:09:30.891Z,14.20
2023-05-06T19:19:34.287Z,14.20
2023-05-06T19:29:36.348Z,14.20
2023-05-06T19:39:39.652Z,14.10
2023-05-06T19:49:41.586Z,14.20
2023-05-06T19:59:44.900Z,14.20
2023-05-06T20:09:46.813Z,14.20
2023-05-06T20:19:50.480Z,14.30
2023-05-06T20:29:52.514Z,14.30
2023-05-06T20:39:55.848Z,14.30
2023-05-06T20:49:57.789Z,14.30
2023-05-06T21:00:01.129Z,14.30
2023-05-06T21:10:03.849Z,14.20
2023-05-06T21:20:08.673Z,14.10
2023-05-06T21:30:11.256Z,14.10
2023-05-06T21:40:14.619Z,14.00
2023-05-06T21:50:16.525Z,14.10
2023-05-06T22:00:20.048Z,14.10
2023-05-06T22:10:22.211Z,14.10
2023-05-06T22:20:25.431Z,14.20
2023-05-06T22:30:27.494Z,14.20
2023-05-06T22:40:30.848Z,14.20
2023-05-06T22:50:32.842Z,14.30
2023-05-06T23:00:36.225Z,14.30
2023-05-06T23:10:38.311Z,14.20
2023-05-06T23:20:41.621Z,14.20
2023-05-06T23:30:43.718Z,14.10
2023-05-06T23:40:47.075Z,14.10
2023-05-06T23:50:49.011Z,14.20
